Time,TemperatureF,DewpointF,PressureIn,WindDirection,WindDirectionDegrees,WindSpeedMPH,WindSpeedGustMPH,Humidity,HourlyPrecipIn,Conditions,Clouds,dailyrainin,SoftwareType,DateUTC
2013-03-04 00:10:00,39.9,26.0,30.05,NE,42,3.0,-999.0,57,-99.99,,,0.00,weatherlink.com 1.10,2013-03-04 05:10:00,
2013-03-04 00:25:00,39.9,26.0,30.05,NNE,26,5.0,-999.0,57,-99.99,,,0.00,weatherlink.com 1.10,2013-03-04 05:25:00,
2013-03-04 00:40:00,40.1,25.0,30.06,NE,55,2.0,-999.0,56,-99.99,,,0.00,weatherlink.com 1.10,2013-03-04 05:40:00,
2013-03-04 00:55:00,40.0,26.0,30.06,NE,45,3.0,-999.0,58,-99.99,,,0.00,weatherlink.com 1.10,2013-03-04 05:55:00,
2013-03-04 01:10:00,40.0,26.0,30.06,ENE,63,2.0,-999.0,58,-99.99,,,0.00,weatherlink.com 1.10,2013-03-04 06:10:00,
2013-03-04 01:25:00,40.0,27.0,30.05,NNE,32,0.0,-999.0,59,-99.99,,,0.00,weatherlink.com 1.10,2013-03-04 06:25:00,
2013-03-04 01:40:00,39.7,26.0,30.05,East,79,5.0,-999.0,59,-99.99,,,0.00,weatherlink.com 1.10,2013-03-04 06:40:00,
2013-03-04 01:55:00,39.5,26.0,30.05,ENE,67,5.0,-999.0,58,-99.99,,,0.00,weatherlink.com 1.10,2013-03-04 06:55:00,
2013-03-04 02:10:00,39.3,26.0,30.05,NE,56,4.0,-999.0,59,-99.99,,,0.00,weatherlink.com 1.10,2013-03-04 07:10:00,
2013-03-04 02:25:00,38.8,25.0,30.06,East,92,1.0,-999.0,59,-99.99,,,0.00,weatherlink.com 1.10,2013-03-04 07:25:00,
2013-03-04 02:40:00,38.4,25.0,30.06,ENE,73,2.0,-999.0,59,-99.99,,,0.00,weatherlink.com 1.10,2013-03-04 07:40:00,
2013-03-04 02:55:00,37.9,25.0,30.06,ENE,64,3.0,-999.0,59,-99.99,,,0.00,weatherlink.com 1.10,2013-03-04 07:55:00,
2013-03-04 03:10:00,37.5,24.0,30.07,ENE,78,2.0,-999.0,58,-99.99,,,0.00,weatherlink.com 1.10,2013-03-04 08:10:00,
2013-03-04 03:26:00,37.0,22.0,30.07,East,81,7.0,-999.0,56,-99.99,,,0.00,weatherlink.com 1.10,2013-03-04 08:26:00,
2013-03-04 03:41:00,36.9,21.0,30.08,East,79,2.0,-999.0,53,-99.99,,,0.00,weatherlink.com 1.10,2013-03-04 08:41:00,
2013-03-04 03:56:00,36.5,19.0,30.09,SE,126,2.0,-999.0,49,-99.99,,,0.00,weatherlink.com 1.10,2013-03-04 08:56:00,
2013-03-04 04:11:00,36.5,14.0,30.10,ESE,108,5.0,-999.0,40,-99.99,,,0.00,weatherlink.com 1.10,2013-03-04 09:11:00,
2013-03-04 04:26:00,36.0,13.0,30.10,SE,126,0.0,-999.0,39,-99.99,,,0.00,weatherlink.com 1.10,2013-03-04 09:26:00,
2013-03-04 04:41:00,35.7,10.0,30.11,ESE,120,4.0,-999.0,35,-99.99,,,0.00,weatherlink.com 1.10,2013-03-04 09:41:00,
2013-03-04 04:56:00,35.3,9.0,30.12,ESE,115,0.0,-999.0,34,-99.99,,,0.00,weatherlink.com 1.10,2013-03-04 09:56:00,
2013-03-04 05:11:00,35.0,8.0,30.13,ESE,120,0.0,-999.0,33,-99.99,,,0.00,weatherlink.com 1.10,2013-03-04 10:11:00,
2013-03-04 05:26:00,34.7,9.0,30.14,SE,129,0.0,-999.0,34,-99.99,,,0.00,weatherlink.com 1.10,2013-03-04 10:26:00,
2013-03-04 05:41:00,34.7,10.0,30.15,SE,145,0.0,-999.0,35,-99.99,,,0.00,weatherlink.com 1.10,2013-03-04 10:41:00,
2013-03-04 05:56:00,34.4,10.0,30.16,SE,131,0.0,-999.0,37,-99.99,,,0.00,weatherlink.com 1.10,2013-03-04 10:56:00,
2013-03-04 06:11:00,34.1,8.0,30.16,SE,132,0.0,-999.0,33,-99.99,,,0.00,weatherlink.com 1.10,2013-03-04 11:11:00,
2013-03-04 06:26:00,33.9,6.0,30.17,ESE,105,0.0,-999.0,31,-99.99,,,0.00,weatherlink.com 1.10,2013-03-04 11:26:00,
2013-03-04 06:41:00,33.9,-22.0,30.17,SE,128,0.0,-999.0,8,-99.99,,,0.00,weatherlink.com 1.10,2013-03-04 11:41:00,
2013-03-04 06:56:00,34.2,-99.9,30.17,SE,128,0.0,-999.0,0,-99.99,,,0.00,weatherlink.com 1.10,2013-03-04 11:56:00,
2013-03-04 07:11:00,34.2,-99.9,30.17,East,101,5.0,-999.0,0,-99.99,,,0.00,weatherlink.com 1.10,2013-03-04 12:11:00,
2013-03-04 07:26:00,35.1,-30.0,30.18,ESE,113,5.0,-999.0,5,-99.99,,,0.00,weatherlink.com 1.10,2013-03-04 12:26:00,
2013-03-04 07:41:00,36.0,1.0,30.18,ENE,73,1.0,-999.0,23,-99.99,,,0.00,weatherlink.com 1.10,2013-03-04 12:41:00,
2013-03-04 07:57:00,36.8,9.0,30.19,ESE,107,0.0,-999.0,32,-99.99,,,0.00,weatherlink.com 1.10,2013-03-04 12:57:00,
2013-03-04 08:12:00,37.1,17.0,30.20,ESE,122,1.0,-999.0,45,-99.99,,,0.00,weatherlink.com 1.10,2013-03-04 13:12:00,
2013-03-04 08:27:00,37.9,22.0,30.20,SSE,158,0.0,-999.0,53,-99.99,,,0.00,weatherlink.com 1.10,2013-03-04 13:27:00,
2013-03-04 08:42:00,38.2,24.0,30.20,SE,138,7.0,-999.0,57,-99.99,,,0.00,weatherlink.com 1.10,2013-03-04 13:42:00,
2013-03-04 08:57:00,39.2,24.0,30.20,SSE,163,0.0,-999.0,55,-99.99,,,0.00,weatherlink.com 1.10,2013-03-04 13:57:00,
2013-03-04 09:12:00,40.0,24.0,30.20,SSE,163,7.0,-999.0,53,-99.99,,,0.00,weatherlink.com 1.10,2013-03-04 14:12:00,
2013-03-04 09:27:00,40.6,24.0,30.20,SE,142,4.0,-999.0,53,-99.99,,,0.00,weatherlink.com 1.10,2013-03-04 14:27:00,
2013-03-04 09:42:00,41.4,24.0,30.21,East,86,2.0,-999.0,51,-99.99,,,0.00,weatherlink.com 1.10,2013-03-04 14:42:00,
2013-03-04 09:57:00,42.2,26.0,30.21,SE,134,4.0,-999.0,53,-99.99,,,0.00,weatherlink.com 1.10,2013-03-04 14:57:00,
2013-03-04 10:12:00,43.1,25.0,30.21,NE,37,1.0,-999.0,50,-99.99,,,0.00,weatherlink.com 1.10,2013-03-04 15:12:00,
2013-03-04 10:27:00,43.0,25.0,30.21,SE,142,4.0,-999.0,49,-99.99,,,0.00,weatherlink.com 1.10,2013-03-04 15:27:00,
2013-03-04 10:44:00,43.9,24.0,30.21,NE,50,4.0,-999.0,46,-99.99,,,0.00,weatherlink.com 1.10,2013-03-04 15:44:00,
2013-03-04 10:57:00,44.7,24.0,30.21,ENE,67,1.0,-999.0,44,-99.99,,,0.00,weatherlink.com 1.10,2013-03-04 15:57:00,
2013-03-04 11:12:00,45.1,24.0,30.20,East,82,5.0,-999.0,44,-99.99,,,0.00,weatherlink.com 1.10,2013-03-04 16:12:00,
2013-03-04 11:28:00,46.2,26.0,30.20,ENE,57,2.0,-999.0,45,-99.99,,,0.00,weatherlink.com 1.10,2013-03-04 16:28:00,
2013-03-04 11:43:00,46.8,25.0,30.19,ENE,63,4.0,-999.0,42,-99.99,,,0.00,weatherlink.com 1.10,2013-03-04 16:43:00,
2013-03-04 11:58:00,47.0,25.0,30.18,ESE,107,4.0,-999.0,42,-99.99,,,0.00,weatherlink.com 1.10,2013-03-04 16:58:00,
2013-03-04 12:13:00,48.3,25.0,30.18,ESE,105,1.0,-999.0,41,-99.99,,,0.00,weatherlink.com 1.10,2013-03-04 17:13:00,
2013-03-04 12:28:00,47.9,25.0,30.17,NE,39,5.0,-999.0,41,-99.99,,,0.00,weatherlink.com 1.10,2013-03-04 17:28:00,
2013-03-04 12:43:00,49.1,24.0,30.16,SE,126,4.0,-999.0,38,-99.99,,,0.00,weatherlink.com 1.10,2013-03-04 17:43:00,
2013-03-04 12:58:00,50.0,24.0,30.15,NE,51,6.0,-999.0,37,-99.99,,,0.00,weatherlink.com 1.10,2013-03-04 17:58:00,
2013-03-04 13:13:00,50.8,25.0,30.15,East,89,0.0,-999.0,36,-99.99,,,0.00,weatherlink.com 1.10,2013-03-04 18:13:00,
2013-03-04 13:28:00,50.7,24.0,30.14,ESE,106,0.0,-999.0,35,-99.99,,,0.00,weatherlink.com 1.10,2013-03-04 18:28:00,
2013-03-04 13:43:00,52.4,25.0,30.13,NE,52,6.0,-999.0,35,-99.99,,,0.00,weatherlink.com 1.10,2013-03-04 18:43:00,
2013-03-04 13:58:00,52.4,25.0,30.13,East,82,3.0,-999.0,34,-99.99,,,0.00,weatherlink.com 1.10,2013-03-04 18:58:00,
2013-03-04 14:13:00,53.8,24.0,30.13,NE,42,1.0,-999.0,32,-99.99,,,0.00,weatherlink.com 1.10,2013-03-04 19:13:00,
2013-03-04 14:28:00,53.4,25.0,30.12,ENE,65,1.0,-999.0,33,-99.99,,,0.00,weatherlink.com 1.10,2013-03-04 19:28:00,
2013-03-04 14:44:00,54.0,26.0,30.12,NE,43,1.0,-999.0,34,-99.99,,,0.00,weatherlink.com 1.10,2013-03-04 19:44:00,
2013-03-04 14:59:00,54.3,24.0,30.12,NNE,29,1.0,-999.0,31,-99.99,,,0.00,weatherlink.com 1.10,2013-03-04 19:59:00,
2013-03-04 15:14:00,55.2,35.0,30.13,North,10,3.0,-999.0,46,-99.99,,,0.00,weatherlink.com 1.10,2013-03-04 20:14:00,
2013-03-04 15:29:00,54.9,35.0,30.12,NW,314,4.0,-999.0,48,-99.99,,,0.00,weatherlink.com 1.10,2013-03-04 20:29:00,
2013-03-04 15:44:00,54.3,36.0,30.12,North,9,0.0,-999.0,50,-99.99,,,0.00,weatherlink.com 1.10,2013-03-04 20:44:00,
2013-03-04 15:59:00,54.5,37.0,30.12,NNW,337,1.0,-999.0,52,-99.99,,,0.00,weatherlink.com 1.10,2013-03-04 20:59:00,
2013-03-04 16:14:00,54.8,35.0,30.12,NNW,343,2.0,-999.0,48,-99.99,,,0.00,weatherlink.com 1.10,2013-03-04 21:14:00,
2013-03-04 16:29:00,55.1,37.0,30.12,NNW,347,2.0,-999.0,50,-99.99,,,0.00,weatherlink.com 1.10,2013-03-04 21:29:00,
2013-03-04 16:44:00,54.0,37.0,30.12,NW,321,4.0,-999.0,54,-99.99,,,0.00,weatherlink.com 1.10,2013-03-04 21:44:00,
2013-03-04 16:59:00,53.2,37.0,30.12,NNE,20,3.0,-999.0,55,-99.99,,,0.00,weatherlink.com 1.10,2013-03-04 21:59:00,
2013-03-04 17:14:00,53.1,37.0,30.12,NNW,344,3.0,-999.0,55,-99.99,,,0.00,weatherlink.com 1.10,2013-03-04 22:14:00,
2013-03-04 17:29:00,52.6,37.0,30.12,North,360,1.0,-999.0,55,-99.99,,,0.00,weatherlink.com 1.10,2013-03-04 22:29:00,
2013-03-04 17:59:00,50.9,35.0,30.13,ENE,61,4.0,-999.0,56,-99.99,,,0.00,weatherlink.com 1.10,2013-03-04 22:59:00,
2013-03-04 18:14:00,49.9,32.0,30.13,NNE,13,0.0,-999.0,50,-99.99,,,0.00,weatherlink.com 1.10,2013-03-04 23:14:00,
2013-03-04 18:29:00,49.2,31.0,30.13,North,9,2.0,-999.0,49,-99.99,,,0.00,weatherlink.com 1.10,2013-03-04 23:29:00,
2013-03-04 18:44:00,49.1,29.0,30.14,NNW,334,0.0,-999.0,46,-99.99,,,0.00,weatherlink.com 1.10,2013-03-04 23:44:00,
2013-03-04 18:59:00,48.8,26.0,30.14,NNW,348,4.0,-999.0,42,-99.99,,,0.00,weatherlink.com 1.10,2013-03-04 23:59:00,
2013-03-04 19:14:00,48.8,21.0,30.15,NE,39,2.0,-999.0,33,-99.99,,,0.00,weatherlink.com 1.10,2013-03-05 00:14:00,
2013-03-04 19:29:00,48.4,16.0,30.16,North,11,0.0,-999.0,27,-99.99,,,0.00,weatherlink.com 1.10,2013-03-05 00:29:00,
2013-03-04 19:44:00,48.1,10.0,30.16,NE,41,3.0,-999.0,21,-99.99,,,0.00,weatherlink.com 1.10,2013-03-05 00:44:00,
2013-03-04 19:59:00,48.0,7.0,30.16,North,5,2.0,-999.0,19,-99.99,,,0.00,weatherlink.com 1.10,2013-03-05 00:59:00,
2013-03-04 20:15:00,47.9,-9.0,30.16,NNE,21,6.0,-999.0,9,-99.99,,,0.00,weatherlink.com 1.10,2013-03-05 01:15:00,
2013-03-04 20:30:00,47.8,-99.9,30.16,ENE,70,4.0,-999.0,0,-99.99,,,0.00,weatherlink.com 1.10,2013-03-05 01:30:00,
2013-03-04 20:45:00,47.8,-99.9,30.17,NNE,17,5.0,-999.0,0,-99.99,,,0.00,weatherlink.com 1.10,2013-03-05 01:45:00,
2013-03-04 21:00:00,47.5,-99.9,30.17,NNE,17,1.0,-999.0,0,-99.99,,,0.00,weatherlink.com 1.10,2013-03-05 02:00:00,
2013-03-04 21:15:00,46.9,-99.9,30.17,NNE,29,0.0,-999.0,0,-99.99,,,0.00,weatherlink.com 1.10,2013-03-05 02:15:00,
2013-03-04 21:30:00,46.6,-99.9,30.17,NE,49,2.0,-999.0,0,-99.99,,,0.00,weatherlink.com 1.10,2013-03-05 02:30:00,
2013-03-04 21:45:00,46.9,-99.9,30.16,North,5,0.0,-999.0,0,-99.99,,,0.00,weatherlink.com 1.10,2013-03-05 02:45:00,
2013-03-04 22:00:00,47.0,-99.9,30.16,NE,42,0.0,-999.0,0,-99.99,,,0.00,weatherlink.com 1.10,2013-03-05 03:00:00,
2013-03-04 22:15:00,46.4,-99.9,30.17,NE,40,0.0,-999.0,0,-99.99,,,0.00,weatherlink.com 1.10,2013-03-05 03:15:00,
2013-03-04 22:30:00,45.8,-99.9,30.17,NNE,33,0.0,-999.0,0,-99.99,,,0.00,weatherlink.com 1.10,2013-03-05 03:30:00,
2013-03-04 22:45:00,45.6,-99.9,30.17,NE,41,0.0,-999.0,0,-99.99,,,0.00,weatherlink.com 1.10,2013-03-05 03:45:00,
2013-03-04 23:00:00,45.8,-99.9,30.16,NE,36,0.0,-999.0,0,-99.99,,,0.00,weatherlink.com 1.10,2013-03-05 04:00:00,
2013-03-04 23:15:00,46.3,-99.9,30.16,North,5,0.0,-999.0,0,-99.99,,,0.00,weatherlink.com 1.10,2013-03-05 04:15:00,
2013-03-04 23:31:00,46.5,-99.9,30.15,North,9,2.0,-999.0,0,-99.99,,,0.00,weatherlink.com 1.10,2013-03-05 04:31:00,
2013-03-04 23:46:00,46.7,-99.9,30.15,North,5,1.0,-999.0,0,-99.99,,,0.00,weatherlink.com 1.10,2013-03-05 04:46:00,